Brocton, IL

4:34 AM CDT on September 15, 2014 (GMT -0500)
Edgar County | Change Station
CLOSE
Current Station
Airport
Location: Paris,
Elevation: 653 ft
Nearby Weather Stations

Elev 653 ft 39.70 °N, 87.67 °W | Updated 19 minutes ago

Clear
Clear
47 °F
Feels Like 47 °F
N
0
Wind Variable Wind from North

Today
High -- | Low -- °F
--% Chance of Precip.
Yesterday
High -- | Low -- °F
Precip. -- in
6:31 AM 6:59 PM
Waning Gibbous, 57% visible
Pressure 30.20 in
Visibility 10.0 miles
Clouds Clear
Dew Point 47 °F
Humidity 100%
Rainfall 0.00 in
Snow Depth Not available.
UV 0 out of 12
Pollen 5.70 out of 12
Air Quality Not available.
Flu Activity Not available.
METAR KPRG 150915Z AUTO 00000KT 10SM CLR 08/08 A3020 RMK AO2 T00820082

More Conditions Fewer Conditions

Pressure 30.20 in
Visibility 10.0 miles
Clouds Clear
Dew Point 47 °F
Humidity 100%
Rainfall 0.00 in
Snow Depth Not available.
UV 0 out of 12
Pollen 5.70 out of 12
Air Quality Not available.
Flu Activity Not available.
METAR KPRG 150915Z AUTO 00000KT 10SM CLR 08/08 A3020 RMK AO2 T00820082

More Conditions Fewer Conditions

10-Day Weather Forecast

Almanac

Astronomy

Sep. 15, 2014 Rise Set
Actual Time 6:31 AM CDT 6:59 PM CDT
Civil Twilight 6:04 AM CDT 7:26 PM CDT
Nautical Twilight 5:32 AM CDT 7:58 PM CDT
Astronomical Twilight 5:00 AM CDT 8:30 PM CDT
Moon 11:42 PM CDT 1:30 PM CDT
Length of Visible Light 13h 21m
Length of Day
12h 27m
Tomorrow will be 2m 35s shorter.
Waning Gibbous, 57% of the Moon is Illuminated
Today
Waning Gibbous
Sep 15
Last Quarter
Sep 24
New
Oct 1
First Quarter
Oct 8
Full

Today's Extremes

State Highs State Lows

Community

WunderPhotos

Upload Photos

1,753,426 photos uploaded!

Nearby

Snow Depth

Station Depth Elevation
No new snow has been reported.

Earthquake Activity

City Distance Mag. Time & Date
No recent earthquake activity has been reported nearby.
Minimum magnitude displayed is 2.5.

Coastal Water Temperatures

Place Temperature
No Stations Reporting

Nearby Weather Stations